createdAt,value
2023-04-10T00:00:14.749Z,446.00
2023-04-10T00:01:14.826Z,447.00
2023-04-10T00:02:14.948Z,445.00
2023-04-10T00:03:15.203Z,446.00
2023-04-10T00:04:15.151Z,451.00
2023-04-10T00:05:15.278Z,452.00
2023-04-10T00:06:15.157Z,454.00
2023-04-10T00:07:15.221Z,456.00
2023-04-10T00:08:15.293Z,459.00
2023-04-10T00:09:15.353Z,461.00
2023-04-10T00:10:15.497Z,459.00
2023-04-10T00:11:15.415Z,456.00
2023-04-10T00:12:15.463Z,457.00
2023-04-10T00:13:15.454Z,457.00
2023-04-10T00:14:15.488Z,457.00
2023-04-10T00:15:15.485Z,457.00
2023-04-10T00:16:15.511Z,457.00
2023-04-10T00:17:15.516Z,459.00
2023-04-10T00:18:15.542Z,459.00
2023-04-10T00:19:15.519Z,459.00
2023-04-10T00:20:15.516Z,458.00
2023-04-10T00:21:15.525Z,456.00
2023-04-10T00:22:15.525Z,457.00
2023-04-10T00:23:15.544Z,457.00
2023-04-10T00:24:15.549Z,457.00
2023-04-10T00:25:15.576Z,456.00
2023-04-10T00:26:15.602Z,455.00
2023-04-10T00:27:15.615Z,454.00
2023-04-10T00:28:15.642Z,452.00
2023-04-10T00:29:15.634Z,451.00
2023-04-10T00:30:15.635Z,451.00
2023-04-10T00:31:15.652Z,454.00
2023-04-10T00:32:15.749Z,453.00
2023-04-10T00:33:15.665Z,454.00
2023-04-10T00:34:15.680Z,456.00
2023-04-10T00:35:15.690Z,455.00
2023-04-10T00:36:15.681Z,456.00
2023-04-10T00:37:15.681Z,455.00
2023-04-10T00:38:15.697Z,454.00
2023-04-10T00:39:15.674Z,454.00
2023-04-10T00:40:15.678Z,454.00
2023-04-10T00:41:15.671Z,452.00
2023-04-10T00:42:15.666Z,452.00
2023-04-10T00:43:15.666Z,453.00
2023-04-10T00:44:15.676Z,453.00
2023-04-10T00:45:15.651Z,453.00
2023-04-10T00:46:15.710Z,454.00
2023-04-10T00:47:15.640Z,450.00
2023-04-10T00:48:15.638Z,449.00
2023-04-10T00:49:15.635Z,449.00
2023-04-10T00:50:15.632Z,450.00
2023-04-10T00:51:15.631Z,448.00
2023-04-10T00:52:15.636Z,448.00
2023-04-10T00:53:15.639Z,450.00
2023-04-10T00:54:15.655Z,451.00
2023-04-10T00:55:15.629Z,453.00
2023-04-10T00:56:15.665Z,452.00
2023-04-10T00:57:15.641Z,455.00
2023-04-10T00:58:15.626Z,454.00
2023-04-10T00:59:15.626Z,454.00
2023-04-10T01:00:15.646Z,455.00
2023-04-10T01:01:15.696Z,454.00
2023-04-10T01:02:15.789Z,455.00
2023-04-10T01:03:15.885Z,456.00
2023-04-10T01:04:15.732Z,454.00
2023-04-10T01:05:15.629Z,452.00
2023-04-10T01:06:15.643Z,451.00
2023-04-10T01:07:15.610Z,451.00
2023-04-10T01:08:15.616Z,452.00
2023-04-10T01:09:15.610Z,451.00
2023-04-10T01:10:15.662Z,451.00
2023-04-10T01:11:15.612Z,450.00
2023-04-10T01:12:15.601Z,451.00
2023-04-10T01:13:15.598Z,451.00
2023-04-10T01:14:15.600Z,453.00
2023-04-10T01:15:15.592Z,455.00
2023-04-10T01:16:15.645Z,454.00
2023-04-10T01:17:15.589Z,453.00
2023-04-10T01:18:15.591Z,454.00
2023-04-10T01:19:15.592Z,454.00
2023-04-10T01:20:15.578Z,455.00
2023-04-10T01:21:15.580Z,455.00
2023-04-10T01:22:15.583Z,456.00
2023-04-10T01:23:15.589Z,457.00
2023-04-10T01:24:15.589Z,458.00
2023-04-10T01:25:15.597Z,454.00
2023-04-10T01:26:15.579Z,453.00
2023-04-10T01:27:15.578Z,450.00
2023-04-10T01:28:15.571Z,451.00
2023-04-10T01:29:15.569Z,451.00
2023-04-10T01:30:15.572Z,447.00
2023-04-10T01:31:15.607Z,447.00
2023-04-10T01:32:15.590Z,446.00
2023-04-10T01:33:15.571Z,449.00
2023-04-10T01:34:15.606Z,447.00
2023-04-10T01:35:15.569Z,449.00
2023-04-10T01:36:15.564Z,450.00
2023-04-10T01:37:15.555Z,451.00
2023-04-10T01:38:15.549Z,449.00
2023-04-10T01:39:15.566Z,450.00
2023-04-10T01:40:15.551Z,450.00
2023-04-10T01:41:15.546Z,450.00
2023-04-10T01:42:15.538Z,451.00
2023-04-10T01:43:15.549Z,452.00
2023-04-10T01:44:15.543Z,454.00
2023-04-10T01:45:15.546Z,454.00
2023-04-10T01:46:15.562Z,455.00
2023-04-10T01:47:15.535Z,456.00
2023-04-10T01:48:15.558Z,455.00
2023-04-10T01:49:15.535Z,453.00
2023-04-10T01:50:15.537Z,452.00
2023-04-10T01:51:15.538Z,453.00
2023-04-10T01:52:15.534Z,450.00
2023-04-10T01:53:15.541Z,450.00
2023-04-10T01:54:15.544Z,449.00
2023-04-10T01:55:15.532Z,451.00
2023-04-10T01:56:15.545Z,450.00
2023-04-10T01:57:15.526Z,449.00
2023-04-10T01:58:15.564Z,451.00
2023-04-10T01:59:15.525Z,451.00
2023-04-10T02:00:15.541Z,449.00
2023-04-10T02:01:26.290Z,449.00
2023-04-10T02:02:15.588Z,449.00
2023-04-10T02:03:15.691Z,449.00
2023-04-10T02:04:15.625Z,447.00
2023-04-10T02:05:15.497Z,444.00
2023-04-10T02:06:15.505Z,444.00
2023-04-10T02:07:15.482Z,446.00
2023-04-10T02:08:15.481Z,445.00
2023-04-10T02:09:15.484Z,443.00
2023-04-10T02:10:15.468Z,443.00
2023-04-10T02:11:15.465Z,442.00
2023-04-10T02:12:15.463Z,442.00
2023-04-10T02:13:15.461Z,442.00
2023-04-10T02:14:15.450Z,441.00
2023-04-10T02:15:15.458Z,443.00
2023-04-10T02:16:15.484Z,444.00
2023-04-10T02:17:15.438Z,444.00
2023-04-10T02:18:15.439Z,444.00
2023-04-10T02:19:15.441Z,445.00
2023-04-10T02:20:15.454Z,448.00
2023-04-10T02:21:15.425Z,453.00
2023-04-10T02:22:15.415Z,450.00
2023-04-10T02:23:15.414Z,450.00
2023-04-10T02:24:15.396Z,454.00
2023-04-10T02:25:15.386Z,454.00
2023-04-10T02:26:15.388Z,455.00
2023-04-10T02:27:15.365Z,456.00
2023-04-10T02:28:15.352Z,456.00
2023-04-10T02:29:15.348Z,452.00
2023-04-10T02:30:15.340Z,451.00
2023-04-10T02:31:15.356Z,450.00
2023-04-10T02:32:15.333Z,450.00
2023-04-10T02:33:15.325Z,449.00
2023-04-10T02:34:15.315Z,449.00
2023-04-10T02:35:15.311Z,447.00
2023-04-10T02:36:15.438Z,449.00
2023-04-10T02:37:15.299Z,448.00
2023-04-10T02:38:17.306Z,451.00
2023-04-10T02:39:15.278Z,453.00
2023-04-10T02:40:15.278Z,454.00
2023-04-10T02:41:15.260Z,454.00
2023-04-10T02:42:15.269Z,450.00
2023-04-10T02:43:15.254Z,447.00
2023-04-10T02:44:15.260Z,449.00
2023-04-10T02:45:15.233Z,450.00
2023-04-10T02:46:15.273Z,452.00
2023-04-10T02:47:15.228Z,452.00
2023-04-10T02:48:15.210Z,453.00
2023-04-10T02:49:15.204Z,452.00
2023-04-10T02:50:15.194Z,451.00
2023-04-10T02:51:15.190Z,451.00
2023-04-10T02:52:15.208Z,451.00
2023-04-10T02:53:15.250Z,451.00
2023-04-10T02:54:15.148Z,452.00
2023-04-10T02:55:15.141Z,454.00
2023-04-10T02:56:15.127Z,455.00
2023-04-10T02:57:15.113Z,454.00
2023-04-10T02:58:15.299Z,452.00
2023-04-10T02:59:15.119Z,451.00
2023-04-10T03:00:15.102Z,448.00
2023-04-10T03:01:15.090Z,450.00
2023-04-10T03:02:15.138Z,452.00
2023-04-10T03:03:15.166Z,452.00
2023-04-10T03:04:15.131Z,453.00
2023-04-10T03:05:15.067Z,453.00
2023-04-10T03:06:15.054Z,451.00
2023-04-10T03:07:15.039Z,451.00
2023-04-10T03:08:15.054Z,449.00
2023-04-10T03:09:15.026Z,449.00
2023-04-10T03:10:15.010Z,450.00
2023-04-10T03:11:14.998Z,449.00
2023-04-10T03:12:15.005Z,450.00
2023-04-10T03:13:14.981Z,449.00
2023-04-10T03:14:14.974Z,450.00
2023-04-10T03:15:14.958Z,451.00
2023-04-10T03:16:15.018Z,452.00
2023-04-10T03:17:14.932Z,453.00
2023-04-10T03:18:14.939Z,453.00
2023-04-10T03:19:14.908Z,452.00
2023-04-10T03:20:14.900Z,451.00
2023-04-10T03:21:14.884Z,452.00
2023-04-10T03:22:14.873Z,451.00
2023-04-10T03:23:14.868Z,452.00
2023-04-10T03:24:14.912Z,449.00
2023-04-10T03:25:15.011Z,450.00
2023-04-10T03:26:14.969Z,448.00
2023-04-10T03:27:14.967Z,447.00
2023-04-10T03:28:14.972Z,447.00
2023-04-10T03:29:14.977Z,446.00
2023-04-10T03:30:15.005Z,447.00
2023-04-10T03:31:15.055Z,447.00
2023-04-10T03:32:15.019Z,446.00
2023-04-10T03:33:15.012Z,449.00
2023-04-10T03:34:14.997Z,449.00
2023-04-10T03:35:15.005Z,451.00
2023-04-10T03:36:15.071Z,450.00
2023-04-10T03:37:15.023Z,451.00
2023-04-10T03:38:15.029Z,448.00
2023-04-10T03:39:15.035Z,448.00
2023-04-10T03:40:15.066Z,448.00
2023-04-10T03:41:15.040Z,448.00
2023-04-10T03:42:15.049Z,450.00
2023-04-10T03:43:15.058Z,450.00
2023-04-10T03:44:15.060Z,451.00
2023-04-10T03:45:15.071Z,450.00
2023-04-10T03:46:15.078Z,450.00
2023-04-10T03:47:15.237Z,448.00
2023-04-10T03:48:15.095Z,448.00
2023-04-10T03:49:15.102Z,448.00
2023-04-10T03:50:15.109Z,450.00
2023-04-10T03:51:15.117Z,449.00
2023-04-10T03:52:15.131Z,448.00
2023-04-10T03:53:15.130Z,449.00
2023-04-10T03:54:15.134Z,449.00
2023-04-10T03:55:15.141Z,450.00
2023-04-10T03:56:15.192Z,452.00
2023-04-10T03:57:15.160Z,453.00
2023-04-10T03:58:15.169Z,453.00
2023-04-10T03:59:15.189Z,456.00
2023-04-10T04:00:15.179Z,457.00
2023-04-10T04:01:15.193Z,458.00
2023-04-10T04:02:15.253Z,457.00
2023-04-10T04:03:15.389Z,458.00
2023-04-10T04:04:15.391Z,456.00
2023-04-10T04:05:15.220Z,455.00
2023-04-10T04:06:15.230Z,455.00
2023-04-10T04:07:15.241Z,455.00
2023-04-10T04:08:15.244Z,454.00
2023-04-10T04:09:15.254Z,453.00
2023-04-10T04:10:15.262Z,453.00
2023-04-10T04:11:15.327Z,456.00
2023-04-10T04:12:15.302Z,457.00
2023-04-10T04:13:15.345Z,457.00
2023-04-10T04:14:15.324Z,457.00
2023-04-10T04:15:15.310Z,455.00
2023-04-10T04:16:15.368Z,452.00
2023-04-10T04:17:15.314Z,450.00
2023-04-10T04:18:15.323Z,449.00
2023-04-10T04:19:15.346Z,452.00
2023-04-10T04:20:15.355Z,453.00
2023-04-10T04:21:15.365Z,454.00
2023-04-10T04:22:15.375Z,452.00
2023-04-10T04:23:15.383Z,454.00
2023-04-10T04:24:15.383Z,455.00
2023-04-10T04:25:15.402Z,455.00
2023-04-10T04:26:15.415Z,454.00
2023-04-10T04:27:15.433Z,452.00
2023-04-10T04:28:15.461Z,452.00
2023-04-10T04:29:15.496Z,451.00
2023-04-10T04:30:15.465Z,449.00
2023-04-10T04:31:15.465Z,449.00
2023-04-10T04:32:15.516Z,451.00
2023-04-10T04:33:15.484Z,453.00
2023-04-10T04:34:15.497Z,453.00
2023-04-10T04:35:15.503Z,452.00
2023-04-10T04:36:15.528Z,452.00
2023-04-10T04:37:15.512Z,453.00
2023-04-10T04:38:15.522Z,453.00
2023-04-10T04:39:15.550Z,452.00
2023-04-10T04:40:15.542Z,452.00
2023-04-10T04:41:15.543Z,450.00
2023-04-10T04:42:15.550Z,450.00
2023-04-10T04:43:15.553Z,453.00
2023-04-10T04:44:15.600Z,455.00
2023-04-10T04:45:15.578Z,456.00
2023-04-10T04:46:15.650Z,456.00
2023-04-10T04:47:15.586Z,456.00
2023-04-10T04:48:15.590Z,457.00
2023-04-10T04:49:15.593Z,456.00
2023-04-10T04:50:15.593Z,459.00
2023-04-10T04:51:15.605Z,456.00
2023-04-10T04:52:15.607Z,454.00
2023-04-10T04:53:15.625Z,457.00
2023-04-10T04:54:15.616Z,457.00
2023-04-10T04:55:15.626Z,456.00
2023-04-10T04:56:15.644Z,457.00
2023-04-10T04:57:15.658Z,459.00
2023-04-10T04:58:15.658Z,460.00
2023-04-10T04:59:15.664Z,461.00
2023-04-10T05:00:15.696Z,462.00
2023-04-10T05:01:15.701Z,459.00
2023-04-10T05:02:15.706Z,459.00
2023-04-10T05:03:15.844Z,460.00
2023-04-10T05:04:15.759Z,459.00
2023-04-10T05:05:15.686Z,462.00
2023-04-10T05:06:15.688Z,462.00
2023-04-10T05:07:15.707Z,462.00
2023-04-10T05:08:15.714Z,463.00
2023-04-10T05:09:15.712Z,460.00
2023-04-10T05:10:15.715Z,457.00
2023-04-10T05:11:15.723Z,456.00
2023-04-10T05:12:15.735Z,454.00
2023-04-10T05:13:15.767Z,454.00
2023-04-10T05:14:15.735Z,454.00
2023-04-10T05:15:15.749Z,455.00
2023-04-10T05:16:15.909Z,456.00
2023-04-10T05:17:15.744Z,456.00
2023-04-10T05:18:15.798Z,455.00
2023-04-10T05:19:15.754Z,452.00
2023-04-10T05:20:15.767Z,452.00
2023-04-10T05:21:15.793Z,450.00
2023-04-10T05:22:16.915Z,454.00
2023-04-10T05:23:15.777Z,454.00
2023-04-10T05:24:15.772Z,457.00
2023-04-10T05:25:15.754Z,459.00
2023-04-10T05:26:15.734Z,458.00
2023-04-10T05:27:15.737Z,459.00
2023-04-10T05:28:15.726Z,458.00
2023-04-10T05:29:15.718Z,458.00
2023-04-10T05:30:15.717Z,457.00
2023-04-10T05:31:15.756Z,457.00
2023-04-10T05:32:15.741Z,458.00
2023-04-10T05:33:15.701Z,459.00
2023-04-10T05:34:15.706Z,461.00
2023-04-10T05:35:15.715Z,460.00
2023-04-10T05:36:15.731Z,462.00
2023-04-10T05:37:15.691Z,462.00
2023-04-10T05:38:15.682Z,460.00
2023-04-10T05:39:15.745Z,460.00
2023-04-10T05:40:15.663Z,461.00
2023-04-10T05:41:15.674Z,460.00
2023-04-10T05:42:15.654Z,458.00
2023-04-10T05:43:15.661Z,457.00
2023-04-10T05:44:15.658Z,460.00
2023-04-10T05:45:15.658Z,462.00
2023-04-10T05:46:15.707Z,462.00
2023-04-10T05:47:15.639Z,460.00
2023-04-10T05:48:15.652Z,457.00
2023-04-10T05:49:15.628Z,459.00
2023-04-10T05:50:15.659Z,458.00
2023-04-10T05:51:15.636Z,460.00
2023-04-10T05:52:15.618Z,459.00
2023-04-10T05:53:15.616Z,458.00
2023-04-10T05:54:15.607Z,457.00
2023-04-10T05:55:15.599Z,458.00
2023-04-10T05:56:15.621Z,458.00
2023-04-10T05:57:15.597Z,459.00
2023-04-10T05:58:15.603Z,458.00
2023-04-10T05:59:15.589Z,458.00
2023-04-10T06:00:15.587Z,461.00
2023-04-10T06:01:15.584Z,461.00
2023-04-10T06:02:15.642Z,461.00
2023-04-10T06:03:15.746Z,462.00
2023-04-10T06:04:15.839Z,461.00
2023-04-10T06:05:15.593Z,461.00
2023-04-10T06:06:15.584Z,460.00
2023-04-10T06:07:15.575Z,461.00
2023-04-10T06:08:15.580Z,459.00
2023-04-10T06:09:15.573Z,456.00
2023-04-10T06:10:15.564Z,454.00
2023-04-10T06:11:15.570Z,456.00
2023-04-10T06:12:15.557Z,455.00
2023-04-10T06:13:15.557Z,453.00
2023-04-10T06:14:15.554Z,452.00
2023-04-10T06:15:15.565Z,453.00
2023-04-10T06:16:15.630Z,453.00
2023-04-10T06:17:15.546Z,454.00
2023-04-10T06:18:15.536Z,454.00
2023-04-10T06:19:15.537Z,455.00
2023-04-10T06:20:15.548Z,457.00
2023-04-10T06:21:15.534Z,457.00
2023-04-10T06:22:15.530Z,456.00
2023-04-10T06:23:15.830Z,454.00
2023-04-10T06:24:15.504Z,453.00
2023-04-10T06:25:15.507Z,455.00
2023-04-10T06:26:15.507Z,458.00
2023-04-10T06:27:15.505Z,459.00
2023-04-10T06:28:15.543Z,457.00
2023-04-10T06:29:15.499Z,456.00
2023-04-10T06:30:15.492Z,455.00
2023-04-10T06:31:15.619Z,458.00
2023-04-10T06:32:15.491Z,458.00
2023-04-10T06:33:15.486Z,461.00
2023-04-10T06:34:15.490Z,465.00
2023-04-10T06:35:15.483Z,462.00
2023-04-10T06:36:15.615Z,461.00
2023-04-10T06:37:15.487Z,463.00
2023-04-10T06:38:15.475Z,461.00
2023-04-10T06:39:15.490Z,462.00
2023-04-10T06:40:15.490Z,466.00
2023-04-10T06:41:15.467Z,466.00
2023-04-10T06:42:15.465Z,464.00
2023-04-10T06:43:15.460Z,466.00
2023-04-10T06:44:15.466Z,465.00
2023-04-10T06:45:15.462Z,467.00
2023-04-10T06:46:15.489Z,465.00
2023-04-10T06:47:15.464Z,466.00
2023-04-10T06:48:15.468Z,465.00
2023-04-10T06:49:15.470Z,465.00
2023-04-10T06:50:15.474Z,467.00
2023-04-10T06:51:15.467Z,468.00
2023-04-10T06:52:15.498Z,469.00
2023-04-10T06:53:15.472Z,468.00
2023-04-10T06:54:15.467Z,469.00
2023-04-10T06:55:15.492Z,470.00
2023-04-10T06:56:15.521Z,469.00
2023-04-10T06:57:15.481Z,468.00
2023-04-10T06:58:15.480Z,467.00
2023-04-10T06:59:15.483Z,467.00
2023-04-10T07:00:15.499Z,468.00
2023-04-10T07:01:15.543Z,467.00
2023-04-10T07:02:15.498Z,469.00
2023-04-10T07:03:15.787Z,470.00
2023-04-10T07:04:15.944Z,468.00
2023-04-10T07:05:15.451Z,470.00
2023-04-10T07:06:15.447Z,470.00
2023-04-10T07:07:15.439Z,469.00
2023-04-10T07:08:15.447Z,471.00
2023-04-10T07:09:15.426Z,470.00
2023-04-10T07:10:15.426Z,472.00
2023-04-10T07:11:15.406Z,470.00
2023-04-10T07:12:15.411Z,469.00
2023-04-10T07:13:15.391Z,472.00
2023-04-10T07:14:15.389Z,473.00
2023-04-10T07:15:15.374Z,471.00
2023-04-10T07:16:15.417Z,471.00
2023-04-10T07:17:15.365Z,473.00
2023-04-10T07:18:15.364Z,475.00
2023-04-10T07:19:15.354Z,475.00
2023-04-10T07:20:15.358Z,476.00
2023-04-10T07:21:15.345Z,472.00
2023-04-10T07:22:15.343Z,471.00
2023-04-10T07:23:15.327Z,467.00
2023-04-10T07:24:15.344Z,465.00
2023-04-10T07:25:15.311Z,465.00
2023-04-10T07:26:15.294Z,465.00
2023-04-10T07:27:15.294Z,465.00
2023-04-10T07:28:15.301Z,468.00
2023-04-10T07:29:15.291Z,467.00
2023-04-10T07:30:15.291Z,467.00
2023-04-10T07:31:15.328Z,467.00
2023-04-10T07:32:15.431Z,467.00
2023-04-10T07:33:15.467Z,468.00
2023-04-10T07:34:15.281Z,466.00
2023-04-10T07:35:15.266Z,467.00
2023-04-10T07:36:15.271Z,470.00
2023-04-10T07:37:15.268Z,472.00
2023-04-10T07:38:15.238Z,472.00
2023-04-10T07:39:15.241Z,473.00
2023-04-10T07:40:15.258Z,472.00
2023-04-10T07:41:15.243Z,470.00
2023-04-10T07:42:15.234Z,470.00
2023-04-10T07:43:15.209Z,471.00
2023-04-10T07:44:15.211Z,469.00
2023-04-10T07:45:15.190Z,470.00
2023-04-10T07:46:15.273Z,470.00
2023-04-10T07:47:15.198Z,470.00
2023-04-10T07:48:15.185Z,471.00
2023-04-10T07:49:15.179Z,469.00
2023-04-10T07:50:15.170Z,468.00
2023-04-10T07:51:15.168Z,467.00
2023-04-10T07:52:15.157Z,462.00
2023-04-10T07:53:15.147Z,462.00
2023-04-10T07:54:15.148Z,466.00
2023-04-10T07:55:15.134Z,468.00
2023-04-10T07:56:15.153Z,469.00
2023-04-10T07:57:15.117Z,471.00
2023-04-10T07:58:15.113Z,473.00
2023-04-10T07:59:15.111Z,475.00
2023-04-10T08:00:15.109Z,476.00
2023-04-10T08:01:15.107Z,474.00
2023-04-10T08:02:15.224Z,473.00
2023-04-10T08:03:15.390Z,471.00
2023-04-10T08:04:15.332Z,470.00
2023-04-10T08:05:15.125Z,473.00
2023-04-10T08:06:15.070Z,473.00
2023-04-10T08:07:15.067Z,473.00
2023-04-10T08:08:15.063Z,470.00
2023-04-10T08:09:15.054Z,470.00
2023-04-10T08:10:15.048Z,470.00
2023-04-10T08:11:15.037Z,474.00
2023-04-10T08:12:15.064Z,475.00
2023-04-10T08:13:15.028Z,477.00
2023-04-10T08:14:18.433Z,476.00
2023-04-10T08:15:15.005Z,474.00
2023-04-10T08:16:15.053Z,472.00
2023-04-10T08:17:15.197Z,470.00
2023-04-10T08:18:14.973Z,471.00
2023-04-10T08:19:14.966Z,468.00
2023-04-10T08:20:14.958Z,469.00
2023-04-10T08:21:14.964Z,467.00
2023-04-10T08:22:14.957Z,465.00
2023-04-10T08:23:20.572Z,467.00
2023-04-10T08:24:14.942Z,469.00
2023-04-10T08:25:14.952Z,470.00
2023-04-10T08:26:14.928Z,471.00
2023-04-10T08:27:14.922Z,471.00
2023-04-10T08:28:14.949Z,470.00
2023-04-10T08:29:14.894Z,471.00
2023-04-10T08:30:14.883Z,469.00
2023-04-10T08:31:14.888Z,467.00
2023-04-10T08:32:14.868Z,468.00
2023-04-10T08:33:14.857Z,467.00
2023-04-10T08:34:14.845Z,467.00
2023-04-10T08:35:14.833Z,469.00
2023-04-10T08:36:14.874Z,472.00
2023-04-10T08:37:14.806Z,469.00
2023-04-10T08:38:14.988Z,467.00
2023-04-10T08:39:14.770Z,468.00
2023-04-10T08:40:14.762Z,472.00
2023-04-10T08:41:14.745Z,471.00
2023-04-10T08:42:14.750Z,469.00
2023-04-10T08:43:14.741Z,468.00
2023-04-10T08:44:14.774Z,467.00
2023-04-10T08:45:14.708Z,467.00
2023-04-10T08:46:15.165Z,464.00
2023-04-10T08:47:14.710Z,462.00
2023-04-10T08:48:14.696Z,463.00
2023-04-10T08:49:14.684Z,462.00
2023-04-10T08:50:14.707Z,462.00
2023-04-10T08:51:18.663Z,462.00
2023-04-10T08:52:14.673Z,463.00
2023-04-10T08:53:14.676Z,464.00
2023-04-10T08:54:14.657Z,465.00
2023-04-10T08:55:14.658Z,462.00
2023-04-10T08:56:14.657Z,465.00
2023-04-10T08:57:14.652Z,468.00
2023-04-10T08:58:14.653Z,464.00
2023-04-10T08:59:14.648Z,462.00
2023-04-10T09:00:23.056Z,464.00
2023-04-10T09:01:14.655Z,463.00
2023-04-10T09:02:14.728Z,462.00
2023-04-10T09:03:14.862Z,462.00
2023-04-10T09:04:14.736Z,461.00
2023-04-10T09:05:14.608Z,462.00
2023-04-10T09:06:14.608Z,464.00
2023-04-10T09:07:14.613Z,464.00
2023-04-10T09:08:14.582Z,466.00
2023-04-10T09:09:14.596Z,463.00
2023-04-10T09:10:14.572Z,462.00
2023-04-10T09:11:14.575Z,460.00
2023-04-10T09:12:14.573Z,461.00
2023-04-10T09:13:14.558Z,459.00
2023-04-10T09:14:14.558Z,460.00
2023-04-10T09:15:14.552Z,463.00
2023-04-10T09:16:14.660Z,465.00
2023-04-10T09:17:14.537Z,464.00
2023-04-10T09:18:14.545Z,464.00
2023-04-10T09:19:14.529Z,461.00
2023-04-10T09:20:14.524Z,458.00
2023-04-10T09:21:14.536Z,458.00
2023-04-10T09:22:14.523Z,459.00
2023-04-10T09:23:14.513Z,460.00
2023-04-10T09:24:14.509Z,460.00
2023-04-10T09:25:14.505Z,457.00
2023-04-10T09:26:14.494Z,455.00
2023-04-10T09:27:14.491Z,454.00
2023-04-10T09:28:14.481Z,455.00
2023-04-10T09:29:14.479Z,456.00
2023-04-10T09:30:14.466Z,457.00
2023-04-10T09:31:14.505Z,456.00
2023-04-10T09:32:14.487Z,457.00
2023-04-10T09:33:14.468Z,457.00
2023-04-10T09:34:14.456Z,460.00
2023-04-10T09:35:14.449Z,457.00
2023-04-10T09:36:14.454Z,457.00
2023-04-10T09:37:14.438Z,459.00
2023-04-10T09:38:14.436Z,460.00
2023-04-10T09:39:14.443Z,460.00
2023-04-10T09:40:14.434Z,460.00
2023-04-10T09:41:14.426Z,459.00
2023-04-10T09:42:14.425Z,458.00
2023-04-10T09:43:14.418Z,457.00
2023-04-10T09:44:14.414Z,455.00
2023-04-10T09:45:14.408Z,456.00
2023-04-10T09:46:14.412Z,457.00
2023-04-10T09:47:14.394Z,455.00
2023-04-10T09:48:14.422Z,454.00
2023-04-10T09:49:14.397Z,453.00
2023-04-10T09:50:14.379Z,453.00
2023-04-10T09:51:14.360Z,453.00
2023-04-10T09:52:14.353Z,451.00
2023-04-10T09:53:14.348Z,454.00
2023-04-10T09:54:14.340Z,458.00
2023-04-10T09:55:14.332Z,457.00
2023-04-10T09:56:14.325Z,456.00
2023-04-10T09:57:14.321Z,456.00
2023-04-10T09:58:14.310Z,459.00
2023-04-10T09:59:14.303Z,462.00
2023-04-10T10:00:14.300Z,464.00
2023-04-10T10:01:14.288Z,465.00
2023-04-10T10:02:14.416Z,465.00
2023-04-10T10:03:14.551Z,465.00
2023-04-10T10:04:14.403Z,465.00
2023-04-10T10:05:14.329Z,465.00
2023-04-10T10:06:14.268Z,464.00
2023-04-10T10:07:14.255Z,465.00
2023-04-10T10:08:14.246Z,466.00
2023-04-10T10:09:14.255Z,464.00
2023-04-10T10:10:14.250Z,463.00
2023-04-10T10:11:14.231Z,461.00
2023-04-10T10:12:14.228Z,461.00
2023-04-10T10:13:14.217Z,460.00
2023-04-10T10:14:14.233Z,460.00
2023-04-10T10:15:14.242Z,463.00
2023-04-10T10:16:14.240Z,460.00
2023-04-10T10:17:14.249Z,461.00
2023-04-10T10:18:14.255Z,461.00
2023-04-10T10:19:14.282Z,461.00
2023-04-10T10:20:14.390Z,462.00
2023-04-10T10:21:14.282Z,463.00
2023-04-10T10:22:14.285Z,465.00
2023-04-10T10:23:14.295Z,465.00
2023-04-10T10:24:14.315Z,463.00
2023-04-10T10:25:14.328Z,461.00
2023-04-10T10:26:14.324Z,462.00
2023-04-10T10:27:14.343Z,459.00
2023-04-10T10:28:14.336Z,461.00
2023-04-10T10:29:14.342Z,461.00
2023-04-10T10:30:28.232Z,463.00
2023-04-10T10:31:14.369Z,463.00
2023-04-10T10:32:14.337Z,461.00
2023-04-10T10:33:14.365Z,462.00
2023-04-10T10:34:13.322Z,463.00
2023-04-10T10:35:14.308Z,464.00
2023-04-10T10:36:14.353Z,463.00
2023-04-10T10:37:14.287Z,462.00
2023-04-10T10:38:14.287Z,461.00
2023-04-10T10:39:14.285Z,464.00
2023-04-10T10:40:14.293Z,464.00
2023-04-10T10:41:14.294Z,467.00
2023-04-10T10:42:14.281Z,466.00
2023-04-10T10:43:14.263Z,467.00
2023-04-10T10:44:14.243Z,467.00
2023-04-10T10:45:14.238Z,469.00
2023-04-10T10:46:14.283Z,468.00
2023-04-10T10:47:14.223Z,465.00
2023-04-10T10:48:14.213Z,464.00
2023-04-10T10:49:14.204Z,466.00
2023-04-10T10:50:14.201Z,467.00
2023-04-10T10:51:14.181Z,467.00
2023-04-10T10:52:14.194Z,463.00
2023-04-10T10:53:14.174Z,462.00
2023-04-10T10:54:14.157Z,464.00
2023-04-10T10:55:14.149Z,462.00
2023-04-10T10:56:14.149Z,463.00
2023-04-10T10:57:14.137Z,464.00
2023-04-10T10:58:14.156Z,463.00
2023-04-10T10:59:14.170Z,464.00
2023-04-10T11:00:14.192Z,465.00
2023-04-10T11:01:14.274Z,465.00
2023-04-10T11:02:14.321Z,465.00
2023-04-10T11:03:14.373Z,465.00
2023-04-10T11:04:14.306Z,463.00
2023-04-10T11:05:14.257Z,459.00
2023-04-10T11:06:14.269Z,457.00
2023-04-10T11:07:14.272Z,459.00
2023-04-10T11:08:14.311Z,459.00
2023-04-10T11:09:14.305Z,460.00
2023-04-10T11:10:14.313Z,464.00
2023-04-10T11:11:14.332Z,466.00
2023-04-10T11:12:14.363Z,465.00
2023-04-10T11:13:14.372Z,465.00
2023-04-10T11:14:14.395Z,466.00
2023-04-10T11:15:14.403Z,464.00
2023-04-10T11:16:14.430Z,463.00
2023-04-10T11:17:14.435Z,463.00
2023-04-10T11:18:14.450Z,461.00
2023-04-10T11:19:15.834Z,462.00
2023-04-10T11:20:14.537Z,459.00
2023-04-10T11:21:14.447Z,457.00
2023-04-10T11:22:14.447Z,456.00
2023-04-10T11:23:14.444Z,457.00
2023-04-10T11:24:14.476Z,457.00
2023-04-10T11:25:14.472Z,457.00
2023-04-10T11:26:14.447Z,457.00
2023-04-10T11:27:14.443Z,456.00
2023-04-10T11:28:14.437Z,458.00
2023-04-10T11:29:14.442Z,457.00
2023-04-10T11:30:14.429Z,459.00
2023-04-10T11:31:14.453Z,460.00
2023-04-10T11:32:14.455Z,456.00
2023-04-10T11:33:14.431Z,458.00
2023-04-10T11:34:14.420Z,456.00
2023-04-10T11:35:14.425Z,454.00
2023-04-10T11:36:14.420Z,455.00
2023-04-10T11:37:14.425Z,455.00
2023-04-10T11:38:14.420Z,456.00
2023-04-10T11:39:14.411Z,456.00
2023-04-10T11:40:14.444Z,459.00
2023-04-10T11:41:14.409Z,457.00
2023-04-10T11:42:14.403Z,457.00
2023-04-10T11:43:14.391Z,459.00
2023-04-10T11:44:14.385Z,460.00
2023-04-10T11:45:14.385Z,460.00
2023-04-10T11:46:14.403Z,461.00
2023-04-10T11:47:14.385Z,460.00
2023-04-10T11:48:14.371Z,462.00
2023-04-10T11:49:14.364Z,464.00
2023-04-10T11:50:14.366Z,466.00
2023-04-10T11:51:14.361Z,466.00
2023-04-10T11:52:14.364Z,463.00
2023-04-10T11:53:14.374Z,462.00
2023-04-10T11:54:14.362Z,461.00
2023-04-10T11:55:14.361Z,460.00
2023-04-10T11:56:14.380Z,461.00
2023-04-10T11:57:14.363Z,461.00
2023-04-10T11:58:14.360Z,460.00
2023-04-10T11:59:14.371Z,463.00
2023-04-10T12:00:14.376Z,465.00
2023-04-10T12:01:14.388Z,468.00
2023-04-10T12:02:14.565Z,468.00
2023-04-10T12:03:14.573Z,469.00
2023-04-10T12:04:14.615Z,470.00
2023-04-10T12:05:14.486Z,469.00
2023-04-10T12:06:14.386Z,471.00
2023-04-10T12:07:14.385Z,471.00
2023-04-10T12:08:14.358Z,471.00
2023-04-10T12:09:14.402Z,468.00
2023-04-10T12:10:14.351Z,471.00
2023-04-10T12:11:14.337Z,471.00
2023-04-10T12:12:14.357Z,471.00
2023-04-10T12:13:14.351Z,470.00
2023-04-10T12:14:14.353Z,470.00
2023-04-10T12:15:14.334Z,469.00
2023-04-10T12:16:14.414Z,469.00
2023-04-10T12:17:14.374Z,470.00
2023-04-10T12:18:14.321Z,471.00
2023-04-10T12:19:14.309Z,474.00
2023-04-10T12:20:14.314Z,473.00
2023-04-10T12:21:14.308Z,472.00
2023-04-10T12:22:14.316Z,471.00
2023-04-10T12:23:14.303Z,470.00
2023-04-10T12:24:14.297Z,469.00
2023-04-10T12:25:14.303Z,470.00
2023-04-10T12:26:14.302Z,467.00
2023-04-10T12:27:14.285Z,466.00
2023-04-10T12:28:14.308Z,463.00